createdAt,value
2022-09-28T00:00:25.396Z,0.44
2022-09-28T00:01:27.319Z,0.53
2022-09-28T00:02:29.254Z,0.65
2022-09-28T00:03:30.131Z,0.6
2022-09-28T00:04:31.110Z,0.46
2022-09-28T00:05:32.053Z,0.57
2022-09-28T00:06:33.159Z,0.52
2022-09-28T00:07:35.150Z,0.19
2022-09-28T00:08:37.074Z,0.66
2022-09-28T00:09:38.091Z,0.54
2022-09-28T00:10:39.130Z,0.37
2022-09-28T00:11:40.070Z,0.09
2022-09-28T00:12:41.079Z,0.43
2022-09-28T00:13:42.171Z,0.57
2022-09-28T00:14:44.251Z,0.58
2022-09-28T00:15:46.165Z,0.63
2022-09-28T00:16:47.250Z,0.58
2022-09-28T00:17:48.102Z,0.43
2022-09-28T00:18:49.250Z,0.5
2022-09-28T00:19:51.250Z,0.3
2022-09-28T00:20:53.070Z,0.4
2022-09-28T00:21:54.011Z,0.34
2022-09-28T00:22:55.051Z,0.71
2022-09-28T00:23:56.180Z,0.5
2022-09-28T00:24:57.031Z,0.35
2022-09-28T00:25:58.121Z,0.66
2022-09-28T00:26:59.111Z,0.44
2022-09-28T00:28:00.105Z,0.29
2022-09-28T00:29:03.209Z,0.63
2022-09-28T00:30:04.256Z,0.2
2022-09-28T00:31:06.279Z,0.09
2022-09-28T00:32:08.190Z,0.14
2022-09-28T00:33:10.254Z,0.17
2022-09-28T00:34:12.170Z,0.3
2022-09-28T00:35:13.110Z,0.56
2022-09-28T00:36:14.111Z,0.7
2022-09-28T00:37:15.072Z,0.66
2022-09-28T00:38:16.130Z,0.52
2022-09-28T00:39:17.212Z,0.59
2022-09-28T00:40:18.095Z,0.51
2022-09-28T00:41:19.271Z,0.66
2022-09-28T00:42:21.251Z,0.49
2022-09-28T00:43:23.152Z,0.48
2022-09-28T00:44:27.140Z,0.43
2022-09-28T00:45:28.073Z,0.32
2022-09-28T00:46:29.096Z,0.34
2022-09-28T00:47:30.179Z,0.29
2022-09-28T00:48:31.071Z,0.23
2022-09-28T00:49:32.032Z,0.3
2022-09-28T00:50:33.091Z,0.14
2022-09-28T00:51:34.293Z,0.22
2022-09-28T00:52:36.251Z,0.16
2022-09-28T00:53:38.311Z,0.13
2022-09-28T00:54:40.232Z,0.08
2022-09-28T00:55:42.130Z,0.19
2022-09-28T00:56:43.110Z,0.07
2022-09-28T00:57:44.171Z,0.14
2022-09-28T00:58:45.090Z,0.53
2022-09-28T00:59:46.090Z,0.2
2022-09-28T01:04:07.879Z,0.14
2022-09-28T01:05:09.135Z,0
2022-09-28T01:06:10.163Z,0.15
2022-09-28T01:07:11.194Z,0.34
2022-09-28T01:08:12.155Z,0.14
2022-09-28T01:09:13.271Z,0.09
2022-09-28T01:10:14.164Z,0.16
2022-09-28T01:11:15.178Z,0.31
2022-09-28T01:12:17.075Z,0.24
2022-09-28T01:13:18.114Z,0.27
2022-09-28T01:14:19.094Z,0.45
2022-09-28T01:15:20.134Z,0.33
2022-09-28T01:16:21.287Z,0.38
2022-09-28T01:17:23.094Z,0.38
2022-09-28T01:18:24.127Z,0.42
2022-09-28T01:19:25.139Z,0.41
2022-09-28T01:20:26.077Z,0.59
2022-09-28T01:21:27.115Z,0.65
2022-09-28T01:22:28.094Z,0.55
2022-09-28T01:23:29.135Z,0.73
2022-09-28T01:24:30.078Z,0.64
2022-09-28T01:25:31.082Z,0.54
2022-09-28T01:26:32.074Z,0.55
2022-09-28T01:27:33.075Z,0.92
2022-09-28T01:28:34.195Z,0.58
2022-09-28T01:29:35.077Z,0.63
2022-09-28T01:30:36.260Z,0.58
2022-09-28T01:31:38.216Z,0.59
2022-09-28T01:32:39.214Z,0.42
2022-09-28T01:33:40.054Z,0.73
2022-09-28T01:34:41.070Z,0.7
2022-09-28T01:35:42.074Z,0.65
2022-09-28T01:36:43.174Z,0.86
2022-09-28T01:37:45.217Z,0.61
2022-09-28T01:38:47.276Z,0.65
2022-09-28T01:39:49.195Z,0.64
2022-09-28T01:40:51.335Z,0.53
2022-09-28T01:41:53.118Z,0.51
2022-09-28T01:42:54.238Z,0.42
2022-09-28T01:43:56.237Z,0.65
2022-09-28T01:44:58.134Z,0.46
2022-09-28T01:45:59.217Z,0.36
2022-09-28T01:47:00.080Z,0.36
2022-09-28T01:48:01.160Z,0.12
2022-09-28T01:49:02.135Z,0.39
2022-09-28T01:50:03.201Z,0.24
2022-09-28T01:51:04.115Z,0.13
2022-09-28T01:52:05.155Z,0
2022-09-28T01:53:06.135Z,0.09
2022-09-28T01:54:07.135Z,0.17
2022-09-28T01:55:08.074Z,0.09
2022-09-28T01:56:09.137Z,0.17
2022-09-28T01:57:10.136Z,0.16
2022-09-28T01:58:11.154Z,0.08
2022-09-28T01:59:12.234Z,0.05
2022-09-28T02:00:13.274Z,0.12
2022-09-28T02:01:15.265Z,0.1
2022-09-28T02:02:16.259Z,0.1
2022-09-28T02:03:17.223Z,0.16
2022-09-28T02:04:18.154Z,0.16
2022-09-28T02:05:19.144Z,0
2022-09-28T02:06:20.115Z,0
2022-09-28T02:07:21.174Z,0
2022-09-28T02:08:22.031Z,0
2022-09-28T02:09:23.135Z,0
2022-09-28T02:10:24.214Z,0.21
2022-09-28T02:11:25.075Z,0
2022-09-28T02:12:26.099Z,0
2022-09-28T02:13:27.154Z,0.07
2022-09-28T02:14:28.194Z,0
2022-09-28T02:15:29.235Z,0
2022-09-28T02:16:30.230Z,0
2022-09-28T02:17:31.188Z,0
2022-09-28T02:18:32.155Z,0
2022-09-28T02:19:33.175Z,0.09
2022-09-28T02:20:34.265Z,0.25
2022-09-28T02:21:35.098Z,0
2022-09-28T02:22:36.174Z,0
2022-09-28T02:23:37.194Z,0.13
2022-09-28T02:24:38.176Z,0.09
2022-09-28T02:25:39.115Z,0.12
2022-09-28T02:26:40.140Z,0.24
2022-09-28T02:27:41.176Z,0.13
2022-09-28T02:28:42.195Z,0.28
2022-09-28T02:29:43.175Z,0.38
2022-09-28T02:30:44.243Z,0.41
2022-09-28T02:31:45.295Z,0.4
2022-09-28T02:32:46.119Z,0.42
2022-09-28T02:33:47.256Z,0.29
2022-09-28T02:34:49.135Z,0.17
2022-09-28T02:35:50.179Z,0.15
2022-09-28T02:36:51.136Z,0.17
2022-09-28T02:37:52.158Z,0.2
2022-09-28T02:38:53.215Z,0.44
2022-09-28T02:39:54.194Z,0.19
2022-09-28T02:40:55.182Z,0.5
2022-09-28T02:41:56.174Z,0.3
2022-09-28T02:42:57.214Z,0.22
2022-09-28T02:43:58.317Z,0.07
2022-09-28T02:45:00.156Z,0.2
2022-09-28T02:46:01.298Z,0.1
2022-09-28T02:47:02.174Z,0.16
2022-09-28T02:48:03.107Z,0.17
2022-09-28T02:49:20.714Z,0.21
2022-09-28T02:50:06.455Z,0.47
2022-09-28T02:51:08.219Z,0.45
2022-09-28T02:52:09.159Z,0.58
2022-09-28T02:53:10.174Z,0.17
2022-09-28T02:54:13.438Z,0.37
2022-09-28T02:55:12.154Z,0.37
2022-09-28T02:56:13.255Z,0.11
2022-09-28T02:57:14.306Z,0.08
2022-09-28T02:58:16.175Z,0
2022-09-28T02:59:17.214Z,0.05
2022-09-28T03:00:18.214Z,0.19
2022-09-28T03:01:19.348Z,0.11
2022-09-28T03:02:21.405Z,0.19
2022-09-28T03:03:23.354Z,0.22
2022-09-28T03:04:25.155Z,0
2022-09-28T03:05:26.143Z,0
2022-09-28T03:06:27.249Z,0.07
2022-09-28T03:07:28.174Z,0
2022-09-28T03:08:29.194Z,0
2022-09-28T03:09:30.195Z,0.11
2022-09-28T03:10:31.174Z,0
2022-09-28T03:11:32.179Z,0
2022-09-28T03:12:33.239Z,0.18
2022-09-28T03:13:34.314Z,0
2022-09-28T03:14:36.135Z,0.06
2022-09-28T03:15:37.199Z,0.16
2022-09-28T03:16:38.327Z,0
2022-09-28T03:17:40.169Z,0.23
2022-09-28T03:18:41.173Z,0.22
2022-09-28T03:19:42.228Z,0.26
2022-09-28T03:20:43.175Z,0.12
2022-09-28T03:21:44.250Z,0.06
2022-09-28T03:22:55.945Z,0
2022-09-28T03:23:46.197Z,0
2022-09-28T03:24:47.175Z,0
2022-09-28T03:25:48.204Z,0
2022-09-28T03:26:49.178Z,0.14
2022-09-28T03:27:50.177Z,0
2022-09-28T03:28:51.316Z,0
2022-09-28T03:29:53.175Z,0
2022-09-28T03:30:54.176Z,0
2022-09-28T03:31:55.266Z,0.24
2022-09-28T03:32:56.227Z,0
2022-09-28T03:33:57.209Z,0.15
2022-09-28T03:34:58.137Z,0.16
2022-09-28T03:35:59.214Z,0.08
2022-09-28T03:37:00.238Z,0.08
2022-09-28T03:38:01.194Z,0.19
2022-09-28T03:39:02.194Z,0.13
2022-09-28T03:40:03.228Z,0
2022-09-28T03:41:04.334Z,0.07
2022-09-28T03:42:05.236Z,0.18
2022-09-28T03:43:06.196Z,0
2022-09-28T03:44:07.197Z,0
2022-09-28T03:45:08.214Z,0
2022-09-28T03:46:09.247Z,0
2022-09-28T03:47:10.184Z,0
2022-09-28T03:48:11.243Z,0
2022-09-28T03:49:12.195Z,0.07
2022-09-28T03:50:13.159Z,0
2022-09-28T03:51:14.294Z,0
2022-09-28T03:52:15.221Z,0
2022-09-28T03:53:16.215Z,0
2022-09-28T03:54:17.195Z,0
2022-09-28T03:55:18.195Z,0.08
2022-09-28T03:56:19.163Z,0.07
2022-09-28T03:57:20.174Z,0.1
2022-09-28T03:58:21.215Z,0
2022-09-28T03:59:22.214Z,0.23
2022-09-28T04:00:23.219Z,0.18
2022-09-28T04:01:24.327Z,0
2022-09-28T04:02:25.350Z,0.23
2022-09-28T04:03:27.242Z,0
2022-09-28T04:04:28.115Z,0
2022-09-28T04:05:29.182Z,0.09
2022-09-28T04:06:30.197Z,0.31
2022-09-28T04:07:31.425Z,0
2022-09-28T04:08:32.084Z,0
2022-09-28T04:09:33.134Z,0
2022-09-28T04:10:34.241Z,0.07
2022-09-28T04:11:53.064Z,0
2022-09-28T04:12:38.198Z,0
2022-09-28T04:13:39.295Z,0
2022-09-28T04:14:40.197Z,0
2022-09-28T04:15:41.148Z,0
2022-09-28T04:16:42.329Z,0
2022-09-28T04:17:43.314Z,0
2022-09-28T04:18:45.379Z,0
2022-09-28T04:19:47.378Z,0
2022-09-28T04:20:49.316Z,0.09
2022-09-28T04:21:51.588Z,0
2022-09-28T04:22:53.180Z,0
2022-09-28T04:23:54.261Z,0.19
2022-09-28T04:24:55.234Z,0.3
2022-09-28T04:25:56.254Z,0
2022-09-28T04:26:57.275Z,0.15
2022-09-28T04:27:58.135Z,0
2022-09-28T04:29:02.782Z,0
2022-09-28T04:30:01.239Z,0
2022-09-28T04:31:02.277Z,0.15
2022-09-28T04:32:03.386Z,0
2022-09-28T04:33:05.318Z,0
2022-09-28T04:34:07.356Z,0
2022-09-28T04:35:09.175Z,0
2022-09-28T04:36:10.194Z,0
2022-09-28T04:37:11.216Z,0
2022-09-28T04:38:12.248Z,0
2022-09-28T04:39:13.419Z,0
2022-09-28T04:40:15.316Z,0
2022-09-28T04:41:16.227Z,0
2022-09-28T04:42:17.335Z,0
2022-09-28T04:43:19.199Z,0
2022-09-28T04:44:20.394Z,0
2022-09-28T04:45:22.216Z,0
2022-09-28T04:46:23.201Z,0
2022-09-28T04:47:24.354Z,0
2022-09-28T04:48:26.376Z,0
2022-09-28T04:49:28.310Z,0
2022-09-28T04:50:29.192Z,0.09
2022-09-28T04:51:30.166Z,0
2022-09-28T04:52:31.266Z,0
2022-09-28T04:53:32.214Z,0.17
2022-09-28T04:54:33.316Z,0
2022-09-28T04:55:35.305Z,0.13
2022-09-28T04:56:37.396Z,0.1
2022-09-28T04:57:39.235Z,0
2022-09-28T04:58:40.294Z,0.11
2022-09-28T04:59:41.316Z,0.09
2022-09-28T05:00:42.309Z,0.06
2022-09-28T05:01:43.218Z,0
2022-09-28T05:02:44.384Z,0
2022-09-28T05:03:46.302Z,0
2022-09-28T05:04:47.333Z,0
2022-09-28T05:05:49.367Z,0
2022-09-28T05:06:51.778Z,0
2022-09-28T05:07:53.200Z,0
2022-09-28T05:08:54.324Z,0
2022-09-28T05:09:55.280Z,0.09
2022-09-28T05:10:56.255Z,0.07
2022-09-28T05:11:57.237Z,0
2022-09-28T05:12:58.254Z,0
2022-09-28T05:13:59.255Z,0
2022-09-28T05:15:00.273Z,0
2022-09-28T05:16:05.149Z,0
2022-09-28T05:17:02.349Z,0
2022-09-28T05:18:03.308Z,0
2022-09-28T05:19:04.287Z,0
2022-09-28T05:20:05.335Z,0.21
2022-09-28T05:21:06.278Z,0
2022-09-28T05:22:07.234Z,0
2022-09-28T05:23:08.223Z,0
2022-09-28T05:24:09.242Z,0
2022-09-28T05:25:10.215Z,0
2022-09-28T05:26:11.206Z,0.1
2022-09-28T05:27:12.217Z,0
2022-09-28T05:28:13.214Z,0
2022-09-28T05:29:14.404Z,0.08
2022-09-28T05:30:15.283Z,0
2022-09-28T05:31:16.328Z,0.17
2022-09-28T05:32:17.199Z,0.07
2022-09-28T05:33:18.326Z,0
2022-09-28T05:34:19.279Z,0.31
2022-09-28T05:35:20.200Z,0
2022-09-28T05:36:21.282Z,0.33
2022-09-28T05:37:22.178Z,0
2022-09-28T05:38:23.215Z,0
2022-09-28T05:39:24.341Z,0
2022-09-28T05:40:25.477Z,0
2022-09-28T05:41:27.201Z,0
2022-09-28T05:42:28.257Z,0
2022-09-28T05:43:29.238Z,0
2022-09-28T05:44:30.266Z,0
2022-09-28T05:45:31.312Z,0.21
2022-09-28T05:46:32.235Z,0.24
2022-09-28T05:47:33.275Z,0
2022-09-28T05:48:34.295Z,0.2
2022-09-28T05:49:35.273Z,0.09
2022-09-28T05:50:36.317Z,0
2022-09-28T05:51:37.236Z,0
2022-09-28T05:52:38.239Z,0.23
2022-09-28T05:53:39.274Z,0.09
2022-09-28T05:54:40.282Z,0
2022-09-28T05:55:41.354Z,0.06
2022-09-28T05:56:42.318Z,0
2022-09-28T05:57:43.324Z,0
2022-09-28T05:58:44.334Z,0.28
2022-09-28T05:59:46.235Z,0.24
2022-09-28T06:00:47.355Z,0
2022-09-28T06:01:48.263Z,0.08
2022-09-28T06:02:49.291Z,0.18
2022-09-28T06:03:50.215Z,0.14
2022-09-28T06:04:51.295Z,0.23
2022-09-28T06:05:52.735Z,0.08
2022-09-28T06:06:54.315Z,0.45
2022-09-28T06:07:55.223Z,0.17
2022-09-28T06:08:56.255Z,0
2022-09-28T06:09:57.359Z,0
2022-09-28T06:10:58.295Z,0.11
2022-09-28T06:11:59.174Z,0.12
2022-09-28T06:13:00.374Z,0.19
2022-09-28T06:14:01.335Z,0.27
2022-09-28T06:15:02.354Z,0
2022-09-28T06:16:03.334Z,0.54
2022-09-28T06:17:04.394Z,0.24
2022-09-28T06:18:05.258Z,0
2022-09-28T06:19:06.255Z,0
2022-09-28T06:20:07.243Z,0.11
2022-09-28T06:21:08.355Z,0.11
2022-09-28T06:22:09.298Z,0
2022-09-28T06:23:10.277Z,0
2022-09-28T06:24:11.294Z,0.57
2022-09-28T06:25:12.524Z,0.33
2022-09-28T06:26:14.343Z,0.52
2022-09-28T06:27:15.270Z,0.44
2022-09-28T06:28:16.216Z,0.58
2022-09-28T06:29:19.411Z,0.46
2022-09-28T06:30:18.362Z,0.36
2022-09-28T06:31:19.287Z,0.68
2022-09-28T06:32:20.395Z,0.59
2022-09-28T06:33:22.353Z,0.5
2022-09-28T06:34:23.331Z,0.81
2022-09-28T06:35:24.254Z,0.74
2022-09-28T06:36:25.314Z,0.69
2022-09-28T06:37:26.374Z,0.51
2022-09-28T06:38:27.315Z,0.64
2022-09-28T06:39:28.314Z,1.45
2022-09-28T06:40:29.472Z,0.74
2022-09-28T06:41:30.394Z,0.54
2022-09-28T06:42:32.256Z,0.54
2022-09-28T06:43:34.449Z,0.36
2022-09-28T06:44:35.438Z,0.22
2022-09-28T06:45:37.274Z,0.64
2022-09-28T06:46:38.501Z,0.75
2022-09-28T06:47:40.355Z,0.45
2022-09-28T06:48:41.485Z,0.34
2022-09-28T06:49:43.294Z,0.27
2022-09-28T06:50:44.354Z,0.25
2022-09-28T06:51:45.301Z,0.11
2022-09-28T06:52:46.302Z,0.13
2022-09-28T06:53:47.300Z,0.36
2022-09-28T06:54:48.314Z,0.28
2022-09-28T06:55:49.400Z,0.34
2022-09-28T06:56:51.296Z,0.45
2022-09-28T06:57:52.795Z,0.39
2022-09-28T06:58:54.356Z,0.9
2022-09-28T06:59:55.276Z,0.52
2022-09-28T07:00:56.416Z,0.23
2022-09-28T07:01:57.398Z,0.34
2022-09-28T07:02:58.414Z,0.37
2022-09-28T07:04:00.335Z,0.26
2022-09-28T07:05:01.275Z,0.14
2022-09-28T07:06:02.367Z,0.35
2022-09-28T07:07:03.397Z,0.24
2022-09-28T07:08:05.283Z,0.47
2022-09-28T07:09:20.796Z,0.36
2022-09-28T07:10:07.303Z,0.18
2022-09-28T07:11:08.406Z,0.69
2022-09-28T07:12:09.355Z,0.78
2022-09-28T07:13:22.352Z,0.83
2022-09-28T07:14:18.598Z,0.6
2022-09-28T07:15:12.374Z,0.59
2022-09-28T07:16:13.735Z,0.53
2022-09-28T07:17:15.564Z,0.45
2022-09-28T07:18:16.386Z,0.11
2022-09-28T07:19:17.314Z,0.8
2022-09-28T07:20:19.521Z,0.49
2022-09-28T07:21:28.516Z,0.26
2022-09-28T07:22:30.786Z,0.44
2022-09-28T07:23:23.354Z,1.31
2022-09-28T07:24:24.329Z,1.93
2022-09-28T07:25:25.276Z,1.19
2022-09-28T07:26:26.378Z,1.03
2022-09-28T07:27:28.986Z,1.55
2022-09-28T07:28:28.295Z,1.37
2022-09-28T07:29:29.395Z,1.22
2022-09-28T07:30:30.429Z,0.73
2022-09-28T07:31:31.424Z,2.21
2022-09-28T07:32:33.336Z,2.04
2022-09-28T07:33:34.403Z,0.71
2022-09-28T07:34:35.328Z,2.52
2022-09-28T07:35:36.439Z,1.62
2022-09-28T07:36:38.363Z,0.91
2022-09-28T07:37:39.456Z,1.66
2022-09-28T07:38:41.369Z,1
2022-09-28T07:39:42.416Z,1.1
2022-09-28T07:40:48.143Z,1.02
2022-09-28T07:41:46.408Z,1.67
2022-09-28T07:42:47.375Z,2.41
2022-09-28T07:43:48.444Z,1.8
2022-09-28T07:44:50.375Z,1.28
2022-09-28T07:45:52.694Z,0.83
2022-09-28T07:46:54.375Z,1.15
2022-09-28T07:47:55.315Z,1.19
2022-09-28T07:48:56.346Z,0.69
2022-09-28T07:49:57.334Z,1.41
2022-09-28T07:50:58.309Z,0.98
2022-09-28T07:51:59.330Z,1.45
2022-09-28T07:53:00.341Z,1.29
2022-09-28T07:54:01.337Z,1.21
2022-09-28T07:55:06.768Z,1.33
2022-09-28T07:56:03.414Z,1.02
2022-09-28T07:57:05.391Z,2.62
2022-09-28T07:58:06.539Z,1.89
2022-09-28T07:59:08.534Z,1.64
2022-09-28T08:00:10.515Z,1.73
2022-09-28T08:01:12.584Z,2.44
2022-09-28T08:02:14.596Z,1.44
2022-09-28T08:03:16.304Z,1.44
2022-09-28T08:04:17.320Z,1.13
2022-09-28T08:05:18.355Z,1.32
2022-09-28T08:06:19.315Z,2.17
2022-09-28T08:07:23.599Z,2.9
2022-09-28T08:08:21.455Z,2.35
2022-09-28T08:09:23.536Z,2.43
2022-09-28T08:10:25.569Z,1.58
2022-09-28T08:11:27.586Z,2
2022-09-28T08:12:29.494Z,1.47
2022-09-28T08:13:31.564Z,1.33
2022-09-28T08:14:33.494Z,0.73
2022-09-28T08:15:35.356Z,1.07
2022-09-28T08:17:38.319Z,1.41
2022-09-28T08:18:39.437Z,1.88
2022-09-28T08:19:41.454Z,1.6
2022-09-28T08:20:44.514Z,1.59
2022-09-28T08:21:45.315Z,1.01
2022-09-28T08:22:46.383Z,0.93
2022-09-28T08:23:47.697Z,0.86
2022-09-28T08:24:49.424Z,1.44
2022-09-28T08:25:50.417Z,1.42
2022-09-28T08:26:51.494Z,0.83
2022-09-28T08:27:53.516Z,0.6
2022-09-28T08:28:55.475Z,0.19
2022-09-28T08:29:57.356Z,0.68
2022-09-28T08:30:58.459Z,1.18
2022-09-28T08:32:01.471Z,1.22
2022-09-28T08:33:01.383Z,1.5
2022-09-28T08:34:02.435Z,1.21
2022-09-28T08:35:03.615Z,2.02
2022-09-28T08:36:05.468Z,2.13
2022-09-28T08:37:07.534Z,1.68
2022-09-28T08:38:09.357Z,1.74
2022-09-28T08:39:10.488Z,1.65
2022-09-28T08:40:12.423Z,1.43
2022-09-28T08:41:13.394Z,0.93
2022-09-28T08:42:14.463Z,1.44
2022-09-28T08:43:16.420Z,0.77
2022-09-28T08:44:17.485Z,1.25
2022-09-28T08:45:19.832Z,0.92
2022-09-28T08:46:22.716Z,0.78
2022-09-28T08:47:21.336Z,0.71
2022-09-28T08:48:22.318Z,0.42
2022-09-28T08:49:25.894Z,0.9
2022-09-28T08:50:25.414Z,1.1
2022-09-28T08:51:26.370Z,0.91
2022-09-28T08:52:27.411Z,0.68
2022-09-28T08:53:28.436Z,1.7
2022-09-28T08:54:29.515Z,2.16
2022-09-28T08:55:31.544Z,1.88
2022-09-28T08:56:33.416Z,0.52
2022-09-28T08:57:34.440Z,0.42
2022-09-28T08:58:36.526Z,0.49
2022-09-28T08:59:38.428Z,0.19
2022-09-28T09:00:39.435Z,1.33
2022-09-28T09:01:40.504Z,0.97
2022-09-28T09:02:41.579Z,1.84
2022-09-28T09:03:43.412Z,1.52
2022-09-28T09:04:44.463Z,0.78
2022-09-28T09:05:46.475Z,0.91
2022-09-28T09:06:48.408Z,2.17
2022-09-28T09:07:49.396Z,1.28
2022-09-28T09:08:50.435Z,0.39
2022-09-28T09:09:51.367Z,2.51
2022-09-28T09:10:52.341Z,2.61
2022-09-28T09:11:53.546Z,2.21
2022-09-28T09:12:55.379Z,2.36
2022-09-28T09:13:56.398Z,2.26
2022-09-28T09:14:57.374Z,1.93
2022-09-28T09:15:58.462Z,1.49
2022-09-28T09:17:00.225Z,1.42
2022-09-28T09:18:01.483Z,0.5
2022-09-28T09:19:03.395Z,0.17
2022-09-28T09:20:04.481Z,0.53
2022-09-28T09:21:06.624Z,0.71
2022-09-28T09:22:08.475Z,1.24
2022-09-28T09:23:10.395Z,0.73
2022-09-28T09:24:11.449Z,0.26
2022-09-28T09:25:12.334Z,1.28
2022-09-28T09:26:15.523Z,2.03
2022-09-28T09:27:15.516Z,1.64
2022-09-28T09:28:17.332Z,1.79
2022-09-28T09:29:18.580Z,0.99
2022-09-28T09:30:20.665Z,1.14
2022-09-28T09:31:22.783Z,1.27
2022-09-28T09:32:22.366Z,1.82
2022-09-28T09:33:23.423Z,1.04
2022-09-28T09:34:24.396Z,1.22
2022-09-28T09:35:29.098Z,0.93
2022-09-28T09:36:26.695Z,1.3
2022-09-28T09:37:28.405Z,1.82
2022-09-28T09:38:29.428Z,1.24
2022-09-28T09:39:30.414Z,1.72
2022-09-28T09:40:31.518Z,1.44
2022-09-28T09:41:33.416Z,0.96
2022-09-28T09:42:34.574Z,0.81
2022-09-28T09:43:36.475Z,0.67
2022-09-28T09:44:38.579Z,1.25
2022-09-28T09:45:40.474Z,1.57
2022-09-28T09:46:41.374Z,0.9
2022-09-28T09:47:42.394Z,0.55
2022-09-28T09:48:43.386Z,0.74
2022-09-28T09:49:44.420Z,0.62
2022-09-28T09:50:45.434Z,0.93
2022-09-28T09:51:46.483Z,1.18
2022-09-28T09:52:47.416Z,1.35
2022-09-28T09:53:48.478Z,1.13
2022-09-28T09:54:49.534Z,0.76
2022-09-28T09:55:51.354Z,0.65
2022-09-28T09:56:52.388Z,0
2022-09-28T09:57:53.475Z,0
2022-09-28T09:58:54.634Z,0.61
2022-09-28T09:59:56.366Z,0.5
2022-09-28T10:00:57.461Z,0.19
2022-09-28T10:01:58.523Z,0.19
2022-09-28T10:02:59.471Z,0.37
2022-09-28T10:04:00.474Z,0.68
2022-09-28T10:05:01.448Z,1.4
2022-09-28T10:06:02.513Z,1.07
2022-09-28T10:07:04.436Z,1.13
2022-09-28T10:08:05.438Z,1.62
2022-09-28T10:09:06.580Z,0.76
2022-09-28T10:10:08.489Z,1.02
2022-09-28T10:11:10.268Z,1.01
2022-09-28T10:12:11.478Z,0.27
2022-09-28T10:13:13.435Z,1.04
2022-09-28T10:14:14.641Z,0.77
2022-09-28T10:15:16.459Z,0.99
2022-09-28T10:16:17.479Z,0.94
2022-09-28T10:17:18.396Z,1.45
2022-09-28T10:18:19.454Z,1.36
2022-09-28T10:19:20.320Z,0.67
2022-09-28T10:20:21.462Z,0.4
2022-09-28T10:21:23.600Z,0.42
2022-09-28T10:22:25.423Z,0.38
2022-09-28T10:23:26.414Z,0.71
2022-09-28T10:24:27.458Z,1.14
2022-09-28T10:25:28.415Z,0.87
2022-09-28T10:26:29.414Z,0.58
2022-09-28T10:27:30.354Z,1.03
2022-09-28T10:28:31.334Z,0.45
2022-09-28T10:29:32.403Z,0.22
2022-09-28T10:30:33.621Z,0.48
2022-09-28T10:31:35.495Z,0.57
2022-09-28T10:32:36.339Z,0.72
2022-09-28T10:33:37.391Z,2.24
2022-09-28T10:34:38.395Z,2.53
2022-09-28T10:35:39.374Z,1.95
2022-09-28T10:36:40.714Z,1.75
2022-09-28T10:37:42.356Z,1.43
2022-09-28T10:38:43.435Z,2.6
2022-09-28T10:39:44.479Z,1.54
2022-09-28T10:40:45.537Z,2.42
2022-09-28T10:41:46.504Z,1.69
2022-09-28T10:42:48.399Z,2.32
2022-09-28T10:43:50.179Z,3.01
2022-09-28T10:44:50.394Z,1.7
2022-09-28T10:45:51.557Z,2.13
2022-09-28T10:46:52.415Z,1.52
2022-09-28T10:47:53.615Z,1.48
2022-09-28T10:48:55.376Z,1.81
2022-09-28T10:49:56.503Z,2.15
2022-09-28T10:50:57.448Z,1.66
2022-09-28T10:51:58.435Z,1.66
2022-09-28T10:52:59.437Z,2.82
2022-09-28T10:54:00.494Z,2.21
2022-09-28T10:55:01.475Z,3.22
2022-09-28T10:56:02.476Z,2.23
2022-09-28T10:57:03.455Z,2.36
2022-09-28T10:58:04.414Z,2.22
2022-09-28T10:59:05.454Z,1.59
2022-09-28T11:00:06.718Z,1.77
2022-09-28T11:01:08.468Z,2.23
2022-09-28T11:02:09.561Z,2.35
2022-09-28T11:03:11.457Z,2.13
2022-09-28T11:04:12.434Z,2.97
2022-09-28T11:05:13.554Z,1.8
2022-09-28T11:06:15.414Z,2.77
2022-09-28T11:07:17.194Z,1.54
2022-09-28T11:08:17.367Z,0.69
2022-09-28T11:09:18.584Z,0.98
2022-09-28T11:10:22.253Z,0.66
2022-09-28T11:11:23.595Z,0.98
2022-09-28T11:12:25.375Z,1.61
2022-09-28T11:13:26.394Z,0.45
2022-09-28T11:14:27.514Z,2
2022-09-28T11:15:28.399Z,1.8
2022-09-28T11:16:29.430Z,1.97
2022-09-28T11:17:30.463Z,1.23
2022-09-28T11:18:31.468Z,0.73
2022-09-28T11:19:32.536Z,0.61
2022-09-28T11:20:33.574Z,0.17
2022-09-28T11:21:35.362Z,0.09
2022-09-28T11:22:36.417Z,0.06
2022-09-28T11:23:37.558Z,0
2022-09-28T11:24:39.415Z,0
2022-09-28T11:25:40.460Z,0
2022-09-28T11:26:41.399Z,0.38
2022-09-28T11:27:42.418Z,0.58
2022-09-28T11:28:43.395Z,0.25
2022-09-28T11:29:44.440Z,0.09
2022-09-28T11:30:45.554Z,0
2022-09-28T11:31:46.503Z,0.24
2022-09-28T11:32:47.534Z,0.4
2022-09-28T11:33:49.421Z,0.45
2022-09-28T11:35:00.741Z,0.42
2022-09-28T11:35:51.384Z,0
2022-09-28T11:36:52.420Z,0.18
2022-09-28T11:37:53.557Z,0.13
2022-09-28T11:38:55.438Z,0.24
2022-09-28T11:39:56.456Z,0.28
2022-09-28T11:40:57.525Z,0.19
2022-09-28T11:41:58.500Z,0.64
2022-09-28T11:42:59.450Z,0.58
2022-09-28T11:44:00.436Z,0.46
2022-09-28T11:45:01.474Z,0.48
2022-09-28T11:46:02.614Z,0.26
2022-09-28T11:47:03.473Z,0
2022-09-28T11:48:04.578Z,0
2022-09-28T11:49:06.505Z,0
2022-09-28T11:50:07.584Z,0
2022-09-28T11:51:09.439Z,0
2022-09-28T11:52:10.488Z,0
2022-09-28T11:53:11.522Z,0
2022-09-28T11:54:12.398Z,0.1
2022-09-28T11:55:13.556Z,0
2022-09-28T11:56:15.397Z,0
2022-09-28T11:57:16.446Z,0
2022-09-28T11:58:17.583Z,0
2022-09-28T11:59:19.382Z,0
2022-09-28T12:00:20.497Z,0
2022-09-28T12:01:21.533Z,0.15
2022-09-28T12:02:22.836Z,0.07
2022-09-28T12:03:24.591Z,0
2022-09-28T12:04:25.455Z,0.11
2022-09-28T12:05:26.476Z,0.13
2022-09-28T12:06:27.496Z,0
2022-09-28T12:07:28.455Z,0
2022-09-28T12:08:29.384Z,0
2022-09-28T12:09:30.672Z,0
2022-09-28T12:10:32.535Z,0
2022-09-28T12:11:33.499Z,0.16
2022-09-28T12:12:34.517Z,0.24
2022-09-28T12:13:35.438Z,0
2022-09-28T12:14:36.543Z,0
2022-09-28T12:15:53.000Z,0
2022-09-28T12:17:03.930Z,0
2022-09-28T12:17:40.651Z,0
2022-09-28T12:18:41.480Z,0
2022-09-28T12:19:42.520Z,0
2022-09-28T12:20:43.576Z,0
2022-09-28T12:21:45.496Z,0
2022-09-28T12:22:47.694Z,0
2022-09-28T12:23:49.657Z,0
2022-09-28T12:24:51.518Z,0
2022-09-28T12:25:52.597Z,0
2022-09-28T12:26:54.528Z,0
2022-09-28T12:27:56.478Z,0
2022-09-28T12:28:57.503Z,0.37
2022-09-28T12:29:59.734Z,0.24
2022-09-28T12:31:01.588Z,0.14
2022-09-28T12:32:03.736Z,0.1
2022-09-28T12:33:05.627Z,0
2022-09-28T12:34:07.680Z,0
2022-09-28T12:35:09.493Z,0
2022-09-28T12:36:10.403Z,0
2022-09-28T12:37:11.504Z,0
2022-09-28T12:38:12.617Z,0
2022-09-28T12:39:21.966Z,0
2022-09-28T12:40:16.496Z,0
2022-09-28T12:41:17.478Z,0
2022-09-28T12:42:19.614Z,0
2022-09-28T12:43:21.542Z,0
2022-09-28T12:44:23.655Z,0
2022-09-28T12:45:25.530Z,0
2022-09-28T12:46:27.673Z,0
2022-09-28T12:47:29.458Z,0
2022-09-28T12:48:31.664Z,0
2022-09-28T12:50:40.755Z,0
2022-09-28T12:51:37.735Z,0
2022-09-28T12:53:40.561Z,0
2022-09-28T12:54:42.655Z,0
2022-09-28T12:55:44.891Z,0
2022-09-28T12:56:46.459Z,0
2022-09-28T12:57:47.720Z,0
2022-09-28T12:58:49.594Z,0
2022-09-28T12:59:51.535Z,0
2022-09-28T13:00:53.685Z,0
2022-09-28T13:01:55.671Z,0
2022-09-28T13:02:57.789Z,0
2022-09-28T13:03:59.947Z,0
2022-09-28T13:05:01.615Z,0
2022-09-28T13:06:03.577Z,0
2022-09-28T13:07:05.678Z,0
2022-09-28T13:08:07.764Z,0.3
2022-09-28T13:09:09.430Z,0.09
2022-09-28T13:10:10.578Z,0.08
2022-09-28T13:11:11.450Z,0
2022-09-28T13:12:12.454Z,0.15
2022-09-28T13:13:13.490Z,0.22
2022-09-28T13:14:14.594Z,0.15
2022-09-28T13:15:16.548Z,0.55
2022-09-28T13:16:17.688Z,0.45
2022-09-28T13:17:18.510Z,0.29
2022-09-28T13:18:19.494Z,0.11
2022-09-28T13:19:20.761Z,0.07
2022-09-28T13:20:22.570Z,0.42
2022-09-28T13:21:24.538Z,0
2022-09-28T13:22:26.681Z,0.18
2022-09-28T13:23:28.734Z,0.56
2022-09-28T13:24:33.244Z,0.41
2022-09-28T13:25:32.509Z,0
2022-09-28T13:26:33.644Z,0
2022-09-28T13:27:35.522Z,0
2022-09-28T13:28:36.475Z,0
2022-09-28T13:30:38.651Z,0.18
2022-09-28T13:31:39.655Z,0.61
2022-09-28T13:32:41.535Z,0.28
2022-09-28T13:33:42.535Z,0.25
2022-09-28T13:34:43.462Z,0
2022-09-28T13:35:44.656Z,0
2022-09-28T13:36:48.235Z,0.21
2022-09-28T13:37:47.474Z,0.49
2022-09-28T13:38:48.517Z,0
2022-09-28T13:39:49.495Z,0.41
2022-09-28T13:40:50.533Z,0.45
2022-09-28T13:41:51.514Z,0.95
2022-09-28T13:42:52.576Z,0.67
2022-09-28T13:43:53.654Z,0.19
2022-09-28T13:44:55.676Z,0.22
2022-09-28T13:45:57.656Z,0.27
2022-09-28T13:46:59.714Z,0
2022-09-28T13:48:01.714Z,0.68
2022-09-28T13:49:03.625Z,0.49
2022-09-28T13:50:05.768Z,0.15
2022-09-28T13:51:07.678Z,0
2022-09-28T13:52:09.717Z,0
2022-09-28T13:53:11.505Z,0
2022-09-28T13:54:12.581Z,0
2022-09-28T13:55:13.563Z,0
2022-09-28T13:56:14.619Z,0.44
2022-09-28T13:57:16.635Z,0.2
2022-09-28T13:58:18.557Z,0.45
2022-09-28T13:59:20.695Z,0.57
2022-09-28T14:00:22.655Z,0.75
2022-09-28T14:01:24.754Z,1.04
2022-09-28T14:02:26.608Z,0.72
2022-09-28T14:03:27.835Z,0.43
2022-09-28T14:04:29.685Z,1.08
2022-09-28T14:05:31.658Z,0.49
2022-09-28T14:06:33.545Z,0.2
2022-09-28T14:07:34.502Z,0
2022-09-28T14:08:35.528Z,0.33